sensor_id;sensor_type;location;lat;lon;timestamp;temperature;humidity
12481;DHT22;6305;48.398;11.762;2023-06-04T00:00:56;10.90;99.90
12481;DHT22;6305;48.398;11.762;2023-06-04T00:03:24;10.90;99.90
12481;DHT22;6305;48.398;11.762;2023-06-04T00:05:51;10.80;99.90
12481;DHT22;6305;48.398;11.762;2023-06-04T00:08:19;10.90;99.90
12481;DHT22;6305;48.398;11.762;2023-06-04T00:10:46;10.80;99.90
12481;DHT22;6305;48.398;11.762;2023-06-04T00:13:13;10.80;99.90
12481;DHT22;6305;48.398;11.762;2023-06-04T00:15:41;10.70;99.90
12481;DHT22;6305;48.398;11.762;2023-06-04T00:18:09;10.70;99.90
12481;DHT22;6305;48.398;11.762;2023-06-04T00:20:36;10.70;99.90
12481;DHT22;6305;48.398;11.762;2023-06-04T00:23:03;10.60;99.90
12481;DHT22;6305;48.398;11.762;2023-06-04T00:25:31;10.60;99.90
12481;DHT22;6305;48.398;11.762;2023-06-04T00:27:59;10.50;99.90
12481;DHT22;6305;48.398;11.762;2023-06-04T00:30:26;10.50;99.90
12481;DHT22;6305;48.398;11.762;2023-06-04T00:32:53;10.40;99.90
12481;DHT22;6305;48.398;11.762;2023-06-04T00:35:21;10.40;99.90
12481;DHT22;6305;48.398;11.762;2023-06-04T00:37:49;10.40;99.90
12481;DHT22;6305;48.398;11.762;2023-06-04T00:40:16;10.40;99.90
12481;DHT22;6305;48.398;11.762;2023-06-04T00:42:44;10.30;99.90
12481;DHT22;6305;48.398;11.762;2023-06-04T00:45:11;10.30;99.90
12481;DHT22;6305;48.398;11.762;2023-06-04T00:47:41;10.30;99.90
12481;DHT22;6305;48.398;11.762;2023-06-04T00:50:09;10.30;99.90
12481;DHT22;6305;48.398;11.762;2023-06-04T00:52:37;10.20;99.90
12481;DHT22;6305;48.398;11.762;2023-06-04T00:55:05;10.20;99.90
12481;DHT22;6305;48.398;11.762;2023-06-04T00:57:33;10.20;99.90
12481;DHT22;6305;48.398;11.762;2023-06-04T01:00:00;10.20;99.90
12481;DHT22;6305;48.398;11.762;2023-06-04T01:02:31;10.10;99.90
12481;DHT22;6305;48.398;11.762;2023-06-04T01:05:04;10.10;99.90
12481;DHT22;6305;48.398;11.762;2023-06-04T01:07:35;10.10;99.90
12481;DHT22;6305;48.398;11.762;2023-06-04T01:10:05;10.10;99.90
12481;DHT22;6305;48.398;11.762;2023-06-04T01:12:32;10.00;99.90
12481;DHT22;6305;48.398;11.762;2023-06-04T01:14:59;10.00;99.90
12481;DHT22;6305;48.398;11.762;2023-06-04T01:17:34;10.00;99.90
12481;DHT22;6305;48.398;11.762;2023-06-04T01:20:28;9.90;99.90
12481;DHT22;6305;48.398;11.762;2023-06-04T01:23:19;9.90;99.90
12481;DHT22;6305;48.398;11.762;2023-06-04T01:25:51;9.90;99.90
12481;DHT22;6305;48.398;11.762;2023-06-04T01:28:19;9.80;99.90
12481;DHT22;6305;48.398;11.762;2023-06-04T01:30:47;9.80;99.90
12481;DHT22;6305;48.398;11.762;2023-06-04T01:33:17;9.80;99.90
12481;DHT22;6305;48.398;11.762;2023-06-04T01:35:44;9.80;99.90
12481;DHT22;6305;48.398;11.762;2023-06-04T01:38:12;9.80;99.90
12481;DHT22;6305;48.398;11.762;2023-06-04T01:40:39;9.80;99.90
12481;DHT22;6305;48.398;11.762;2023-06-04T01:43:08;9.80;99.90
12481;DHT22;6305;48.398;11.762;2023-06-04T01:45:35;9.80;99.90
12481;DHT22;6305;48.398;11.762;2023-06-04T01:48:03;9.70;99.90
12481;DHT22;6305;48.398;11.762;2023-06-04T01:50:31;9.70;99.90
12481;DHT22;6305;48.398;11.762;2023-06-04T01:52:58;9.70;99.90
12481;DHT22;6305;48.398;11.762;2023-06-04T01:55:25;9.70;99.90
12481;DHT22;6305;48.398;11.762;2023-06-04T01:57:53;9.70;99.90
12481;DHT22;6305;48.398;11.762;2023-06-04T02:00:22;9.70;99.90
12481;DHT22;6305;48.398;11.762;2023-06-04T02:02:49;9.70;99.90
12481;DHT22;6305;48.398;11.762;2023-06-04T02:05:16;9.70;99.90
12481;DHT22;6305;48.398;11.762;2023-06-04T02:07:44;9.70;99.90
12481;DHT22;6305;48.398;11.762;2023-06-04T02:10:15;9.80;99.90
12481;DHT22;6305;48.398;11.762;2023-06-04T02:12:53;9.70;99.90
12481;DHT22;6305;48.398;11.762;2023-06-04T02:15:24;9.70;99.90
12481;DHT22;6305;48.398;11.762;2023-06-04T02:17:56;9.60;99.90
12481;DHT22;6305;48.398;11.762;2023-06-04T02:20:24;9.60;99.90
12481;DHT22;6305;48.398;11.762;2023-06-04T02:22:51;9.60;99.90
12481;DHT22;6305;48.398;11.762;2023-06-04T02:25:18;9.60;99.90
12481;DHT22;6305;48.398;11.762;2023-06-04T02:27:45;9.60;99.90
12481;DHT22;6305;48.398;11.762;2023-06-04T02:30:12;9.60;99.90
12481;DHT22;6305;48.398;11.762;2023-06-04T02:32:40;9.60;99.90
12481;DHT22;6305;48.398;11.762;2023-06-04T02:35:10;9.60;99.90
12481;DHT22;6305;48.398;11.762;2023-06-04T02:37:37;9.60;99.90
12481;DHT22;6305;48.398;11.762;2023-06-04T02:40:04;9.50;99.90
12481;DHT22;6305;48.398;11.762;2023-06-04T02:42:32;9.50;99.90
12481;DHT22;6305;48.398;11.762;2023-06-04T02:44:59;9.50;99.90
12481;DHT22;6305;48.398;11.762;2023-06-04T02:47:27;9.50;99.90
12481;DHT22;6305;48.398;11.762;2023-06-04T02:49:56;9.40;99.90
12481;DHT22;6305;48.398;11.762;2023-06-04T02:52:23;9.30;99.90
12481;DHT22;6305;48.398;11.762;2023-06-04T02:54:51;9.30;99.90
12481;DHT22;6305;48.398;11.762;2023-06-04T02:57:17;9.30;99.90
12481;DHT22;6305;48.398;11.762;2023-06-04T02:59:44;9.20;99.90
12481;DHT22;6305;48.398;11.762;2023-06-04T03:02:11;9.20;99.90
12481;DHT22;6305;48.398;11.762;2023-06-04T03:04:40;9.20;99.90
12481;DHT22;6305;48.398;11.762;2023-06-04T03:07:09;9.20;99.90
12481;DHT22;6305;48.398;11.762;2023-06-04T03:09:37;9.20;99.90
12481;DHT22;6305;48.398;11.762;2023-06-04T03:12:05;9.10;99.90
12481;DHT22;6305;48.398;11.762;2023-06-04T03:14:32;9.10;99.90
12481;DHT22;6305;48.398;11.762;2023-06-04T03:16:59;9.10;99.90
12481;DHT22;6305;48.398;11.762;2023-06-04T03:19:34;9.10;99.90
12481;DHT22;6305;48.398;11.762;2023-06-04T03:22:02;9.10;99.90
12481;DHT22;6305;48.398;11.762;2023-06-04T03:24:34;9.10;99.90
12481;DHT22;6305;48.398;11.762;2023-06-04T03:27:02;9.10;99.90
12481;DHT22;6305;48.398;11.762;2023-06-04T03:29:30;9.10;99.90
12481;DHT22;6305;48.398;11.762;2023-06-04T03:31:58;9.10;99.90
12481;DHT22;6305;48.398;11.762;2023-06-04T03:34:26;9.10;99.90
12481;DHT22;6305;48.398;11.762;2023-06-04T03:36:53;9.20;99.90
12481;DHT22;6305;48.398;11.762;2023-06-04T03:39:20;9.30;99.90
12481;DHT22;6305;48.398;11.762;2023-06-04T03:41:49;9.30;99.90
12481;DHT22;6305;48.398;11.762;2023-06-04T03:44:19;9.30;99.90
12481;DHT22;6305;48.398;11.762;2023-06-04T03:46:47;9.40;99.90
12481;DHT22;6305;48.398;11.762;2023-06-04T03:49:14;9.40;99.90
12481;DHT22;6305;48.398;11.762;2023-06-04T03:51:44;9.50;99.90
12481;DHT22;6305;48.398;11.762;2023-06-04T03:54:12;9.60;99.90
12481;DHT22;6305;48.398;11.762;2023-06-04T03:56:44;9.70;99.90
12481;DHT22;6305;48.398;11.762;2023-06-04T03:59:13;9.80;99.90
12481;DHT22;6305;48.398;11.762;2023-06-04T04:01:42;9.90;99.90
12481;DHT22;6305;48.398;11.762;2023-06-04T04:04:09;10.00;99.90
12481;DHT22;6305;48.398;11.762;2023-06-04T04:06:36;10.10;99.90
12481;DHT22;6305;48.398;11.762;2023-06-04T04:09:04;10.30;99.90
12481;DHT22;6305;48.398;11.762;2023-06-04T04:11:32;10.40;99.90
12481;DHT22;6305;48.398;11.762;2023-06-04T04:13:59;10.60;99.90
12481;DHT22;6305;48.398;11.762;2023-06-04T04:16:29;10.80;99.90
12481;DHT22;6305;48.398;11.762;2023-06-04T04:18:56;10.90;99.90
12481;DHT22;6305;48.398;11.762;2023-06-04T04:21:23;11.10;99.90
12481;DHT22;6305;48.398;11.762;2023-06-04T04:23:51;11.30;99.90
12481;DHT22;6305;48.398;11.762;2023-06-04T04:26:19;11.40;99.90
12481;DHT22;6305;48.398;11.762;2023-06-04T04:28:50;11.60;99.90
12481;DHT22;6305;48.398;11.762;2023-06-04T04:31:18;11.80;99.90
12481;DHT22;6305;48.398;11.762;2023-06-04T04:33:47;12.00;99.90
12481;DHT22;6305;48.398;11.762;2023-06-04T04:36:14;12.30;99.90
12481;DHT22;6305;48.398;11.762;2023-06-04T04:38:46;12.50;99.90
12481;DHT22;6305;48.398;11.762;2023-06-04T04:41:20;12.70;99.90
12481;DHT22;6305;48.398;11.762;2023-06-04T04:43:48;12.90;99.90
12481;DHT22;6305;48.398;11.762;2023-06-04T04:46:21;13.10;99.90
12481;DHT22;6305;48.398;11.762;2023-06-04T04:48:50;13.40;99.90
12481;DHT22;6305;48.398;11.762;2023-06-04T04:51:17;13.60;99.90
12481;DHT22;6305;48.398;11.762;2023-06-04T04:53:44;13.90;99.90
12481;DHT22;6305;48.398;11.762;2023-06-04T04:56:11;14.10;99.40
12481;DHT22;6305;48.398;11.762;2023-06-04T04:58:42;14.30;97.90
12481;DHT22;6305;48.398;11.762;2023-06-04T05:01:10;14.50;96.50
12481;DHT22;6305;48.398;11.762;2023-06-04T05:03:38;14.80;95.10
12481;DHT22;6305;48.398;11.762;2023-06-04T05:06:07;14.90;93.80
12481;DHT22;6305;48.398;11.762;2023-06-04T05:08:33;15.10;92.80
12481;DHT22;6305;48.398;11.762;2023-06-04T05:11:01;15.40;91.80
12481;DHT22;6305;48.398;11.762;2023-06-04T05:13:28;15.60;90.70
12481;DHT22;6305;48.398;11.762;2023-06-04T05:16:00;15.80;89.10
12481;DHT22;6305;48.398;11.762;2023-06-04T05:18:33;16.10;86.30
12481;DHT22;6305;48.398;11.762;2023-06-04T05:21:02;16.40;83.60
12481;DHT22;6305;48.398;11.762;2023-06-04T05:23:34;16.60;80.60
12481;DHT22;6305;48.398;11.762;2023-06-04T05:26:03;16.90;78.00
12481;DHT22;6305;48.398;11.762;2023-06-04T05:28:31;17.10;75.30
12481;DHT22;6305;48.398;11.762;2023-06-04T05:30:59;17.40;74.00
12481;DHT22;6305;48.398;11.762;2023-06-04T05:33:30;17.70;72.10
12481;DHT22;6305;48.398;11.762;2023-06-04T05:36:01;18.10;70.40
12481;DHT22;6305;48.398;11.762;2023-06-04T05:38:35;18.50;68.40
12481;DHT22;6305;48.398;11.762;2023-06-04T05:41:07;18.80;65.50
12481;DHT22;6305;48.398;11.762;2023-06-04T05:43:36;19.20;63.50
12481;DHT22;6305;48.398;11.762;2023-06-04T05:46:04;19.50;61.70
12481;DHT22;6305;48.398;11.762;2023-06-04T05:48:33;19.80;59.60
12481;DHT22;6305;48.398;11.762;2023-06-04T05:51:01;20.00;58.30
12481;DHT22;6305;48.398;11.762;2023-06-04T05:53:28;20.30;57.20
12481;DHT22;6305;48.398;11.762;2023-06-04T05:55:56;20.50;56.30
12481;DHT22;6305;48.398;11.762;2023-06-04T05:58:23;20.90;55.20
12481;DHT22;6305;48.398;11.762;2023-06-04T06:00:50;21.20;54.30
12481;DHT22;6305;48.398;11.762;2023-06-04T06:03:18;21.60;52.90
12481;DHT22;6305;48.398;11.762;2023-06-04T06:05:47;21.90;52.10
12481;DHT22;6305;48.398;11.762;2023-06-04T06:08:14;22.40;51.40
12481;DHT22;6305;48.398;11.762;2023-06-04T06:10:42;23.00;49.30
12481;DHT22;6305;48.398;11.762;2023-06-04T06:13:11;23.70;47.90
12481;DHT22;6305;48.398;11.762;2023-06-04T06:15:37;24.00;46.50
12481;DHT22;6305;48.398;11.762;2023-06-04T06:18:05;24.70;45.50
12481;DHT22;6305;48.398;11.762;2023-06-04T06:20:32;25.50;43.90
12481;DHT22;6305;48.398;11.762;2023-06-04T06:23:05;26.10;42.40
12481;DHT22;6305;48.398;11.762;2023-06-04T06:25:35;26.60;41.10
12481;DHT22;6305;48.398;11.762;2023-06-04T06:28:07;27.20;38.80
12481;DHT22;6305;48.398;11.762;2023-06-04T06:30:37;28.00;37.50
12481;DHT22;6305;48.398;11.762;2023-06-04T06:33:04;28.80;35.90
12481;DHT22;6305;48.398;11.762;2023-06-04T06:35:31;29.00;34.60
12481;DHT22;6305;48.398;11.762;2023-06-04T06:37:58;29.90;34.60
12481;DHT22;6305;48.398;11.762;2023-06-04T06:40:25;30.90;33.90
12481;DHT22;6305;48.398;11.762;2023-06-04T06:42:51;31.80;32.50
12481;DHT22;6305;48.398;11.762;2023-06-04T06:45:19;33.10;31.40
12481;DHT22;6305;48.398;11.762;2023-06-04T06:47:47;34.10;30.30
12481;DHT22;6305;48.398;11.762;2023-06-04T06:50:14;34.60;29.00
12481;DHT22;6305;48.398;11.762;2023-06-04T06:52:41;35.00;28.70
12481;DHT22;6305;48.398;11.762;2023-06-04T06:55:08;35.80;28.30
12481;DHT22;6305;48.398;11.762;2023-06-04T06:57:35;36.40;27.70
12481;DHT22;6305;48.398;11.762;2023-06-04T07:00:03;37.10;27.50
12481;DHT22;6305;48.398;11.762;2023-06-04T07:02:32;37.30;26.70
12481;DHT22;6305;48.398;11.762;2023-06-04T07:05:00;37.40;27.20
12481;DHT22;6305;48.398;11.762;2023-06-04T07:07:27;37.90;26.60
12481;DHT22;6305;48.398;11.762;2023-06-04T07:09:54;38.50;26.10
12481;DHT22;6305;48.398;11.762;2023-06-04T07:12:20;38.90;25.70
12481;DHT22;6305;48.398;11.762;2023-06-04T07:14:48;38.90;25.30
12481;DHT22;6305;48.398;11.762;2023-06-04T07:17:15;39.30;25.20
12481;DHT22;6305;48.398;11.762;2023-06-04T07:19:41;39.40;25.00
12481;DHT22;6305;48.398;11.762;2023-06-04T07:22:10;39.60;24.80
12481;DHT22;6305;48.398;11.762;2023-06-04T07:24:37;39.20;24.30
12481;DHT22;6305;48.398;11.762;2023-06-04T07:27:10;38.60;24.50
12481;DHT22;6305;48.398;11.762;2023-06-04T07:29:37;38.30;24.50
12481;DHT22;6305;48.398;11.762;2023-06-04T07:32:04;38.50;25.30
12481;DHT22;6305;48.398;11.762;2023-06-04T07:34:31;39.30;25.00
12481;DHT22;6305;48.398;11.762;2023-06-04T07:36:58;39.30;24.60
12481;DHT22;6305;48.398;11.762;2023-06-04T07:39:26;39.60;24.40
12481;DHT22;6305;48.398;11.762;2023-06-04T07:41:53;39.70;24.30
12481;DHT22;6305;48.398;11.762;2023-06-04T07:44:20;40.00;24.20
12481;DHT22;6305;48.398;11.762;2023-06-04T07:46:47;39.50;23.90
12481;DHT22;6305;48.398;11.762;2023-06-04T07:49:14;39.00;23.80
12481;DHT22;6305;48.398;11.762;2023-06-04T07:51:41;38.60;24.00
12481;DHT22;6305;48.398;11.762;2023-06-04T07:54:09;38.60;24.60
12481;DHT22;6305;48.398;11.762;2023-06-04T07:56:37;38.50;24.60
12481;DHT22;6305;48.398;11.762;2023-06-04T07:59:04;37.80;24.70
12481;DHT22;6305;48.398;11.762;2023-06-04T08:01:31;37.90;25.30
12481;DHT22;6305;48.398;11.762;2023-06-04T08:03:58;38.40;25.10
12481;DHT22;6305;48.398;11.762;2023-06-04T08:06:25;38.20;24.50
12481;DHT22;6305;48.398;11.762;2023-06-04T08:08:53;37.50;25.50
12481;DHT22;6305;48.398;11.762;2023-06-04T08:11:20;38.30;25.10
12481;DHT22;6305;48.398;11.762;2023-06-04T08:13:49;39.20;24.50
12481;DHT22;6305;48.398;11.762;2023-06-04T08:16:16;40.00;24.10
12481;DHT22;6305;48.398;11.762;2023-06-04T08:19:03;40.10;24.00
12481;DHT22;6305;48.398;11.762;2023-06-04T08:21:44;40.70;23.80
12481;DHT22;6305;48.398;11.762;2023-06-04T08:24:28;41.00;23.80
12481;DHT22;6305;48.398;11.762;2023-06-04T08:27:11;41.20;23.40
12481;DHT22;6305;48.398;11.762;2023-06-04T08:29:50;41.20;23.60
12481;DHT22;6305;48.398;11.762;2023-06-04T08:32:37;40.70;24.20
12481;DHT22;6305;48.398;11.762;2023-06-04T08:35:13;40.90;23.70
12481;DHT22;6305;48.398;11.762;2023-06-04T08:37:40;40.80;23.40
12481;DHT22;6305;48.398;11.762;2023-06-04T08:40:08;40.10;23.50
12481;DHT22;6305;48.398;11.762;2023-06-04T08:42:41;39.90;24.20
12481;DHT22;6305;48.398;11.762;2023-06-04T08:45:11;40.70;24.30
12481;DHT22;6305;48.398;11.762;2023-06-04T08:47:42;41.30;23.90
12481;DHT22;6305;48.398;11.762;2023-06-04T08:50:10;42.00;23.10
12481;DHT22;6305;48.398;11.762;2023-06-04T08:52:38;42.60;22.50
12481;DHT22;6305;48.398;11.762;2023-06-04T08:55:08;42.90;22.60
12481;DHT22;6305;48.398;11.762;2023-06-04T08:57:38;43.10;22.30
12481;DHT22;6305;48.398;11.762;2023-06-04T09:00:06;43.10;22.10
12481;DHT22;6305;48.398;11.762;2023-06-04T09:02:36;42.60;22.80
12481;DHT22;6305;48.398;11.762;2023-06-04T09:05:04;42.30;22.60
12481;DHT22;6305;48.398;11.762;2023-06-04T09:07:35;41.50;22.60
12481;DHT22;6305;48.398;11.762;2023-06-04T09:10:05;41.80;22.80
12481;DHT22;6305;48.398;11.762;2023-06-04T09:12:36;42.00;21.60
12481;DHT22;6305;48.398;11.762;2023-06-04T09:15:04;41.40;22.00
12481;DHT22;6305;48.398;11.762;2023-06-04T09:17:30;41.30;22.60
12481;DHT22;6305;48.398;11.762;2023-06-04T09:19:59;41.60;22.60
12481;DHT22;6305;48.398;11.762;2023-06-04T09:22:32;42.40;22.50
12481;DHT22;6305;48.398;11.762;2023-06-04T09:24:59;42.90;22.10
12481;DHT22;6305;48.398;11.762;2023-06-04T09:27:26;43.00;22.00
12481;DHT22;6305;48.398;11.762;2023-06-04T09:29:56;43.00;22.00
12481;DHT22;6305;48.398;11.762;2023-06-04T09:32:23;42.50;21.50
12481;DHT22;6305;48.398;11.762;2023-06-04T09:34:50;41.80;22.30
12481;DHT22;6305;48.398;11.762;2023-06-04T09:37:20;41.90;22.60
12481;DHT22;6305;48.398;11.762;2023-06-04T09:39:53;41.80;22.50
12481;DHT22;6305;48.398;11.762;2023-06-04T09:42:20;41.20;22.70
12481;DHT22;6305;48.398;11.762;2023-06-04T09:44:48;40.60;22.80
12481;DHT22;6305;48.398;11.762;2023-06-04T09:47:15;40.80;23.00
12481;DHT22;6305;48.398;11.762;2023-06-04T09:49:42;40.00;23.00
12481;DHT22;6305;48.398;11.762;2023-06-04T09:52:09;39.50;23.20
12481;DHT22;6305;48.398;11.762;2023-06-04T09:54:38;38.90;23.60
12481;DHT22;6305;48.398;11.762;2023-06-04T09:57:14;38.90;23.50
12481;DHT22;6305;48.398;11.762;2023-06-04T09:59:43;38.80;23.50
12481;DHT22;6305;48.398;11.762;2023-06-04T10:02:12;38.10;23.80
12481;DHT22;6305;48.398;11.762;2023-06-04T10:04:41;37.10;24.30
12481;DHT22;6305;48.398;11.762;2023-06-04T10:07:11;36.80;24.30
12481;DHT22;6305;48.398;11.762;2023-06-04T10:09:43;36.50;24.50
12481;DHT22;6305;48.398;11.762;2023-06-04T10:12:13;36.00;24.50
12481;DHT22;6305;48.398;11.762;2023-06-04T10:14:47;36.30;25.00
12481;DHT22;6305;48.398;11.762;2023-06-04T10:17:17;36.50;24.70
12481;DHT22;6305;48.398;11.762;2023-06-04T10:19:45;36.70;24.30
12481;DHT22;6305;48.398;11.762;2023-06-04T10:22:13;37.40;24.10
12481;DHT22;6305;48.398;11.762;2023-06-04T10:24:41;38.20;23.80
12481;DHT22;6305;48.398;11.762;2023-06-04T10:27:11;38.70;24.00
12481;DHT22;6305;48.398;11.762;2023-06-04T10:29:39;38.30;22.80
12481;DHT22;6305;48.398;11.762;2023-06-04T10:32:06;37.00;23.90
12481;DHT22;6305;48.398;11.762;2023-06-04T10:34:34;36.70;24.80
12481;DHT22;6305;48.398;11.762;2023-06-04T10:37:01;36.90;24.70
12481;DHT22;6305;48.398;11.762;2023-06-04T10:39:31;36.80;24.60
12481;DHT22;6305;48.398;11.762;2023-06-04T10:42:01;37.40;24.10
12481;DHT22;6305;48.398;11.762;2023-06-04T10:44:28;37.60;23.10
12481;DHT22;6305;48.398;11.762;2023-06-04T10:46:57;37.40;23.40
12481;DHT22;6305;48.398;11.762;2023-06-04T10:49:28;36.70;23.90
12481;DHT22;6305;48.398;11.762;2023-06-04T10:51:55;36.50;24.00
12481;DHT22;6305;48.398;11.762;2023-06-04T10:54:23;36.90;25.00
12481;DHT22;6305;48.398;11.762;2023-06-04T10:56:52;38.00;24.70
12481;DHT22;6305;48.398;11.762;2023-06-04T10:59:21;38.50;24.30
12481;DHT22;6305;48.398;11.762;2023-06-04T11:01:49;39.30;23.40
12481;DHT22;6305;48.398;11.762;2023-06-04T11:04:20;40.20;22.40
12481;DHT22;6305;48.398;11.762;2023-06-04T11:06:48;40.40;22.90
12481;DHT22;6305;48.398;11.762;2023-06-04T11:09:16;41.40;22.30
12481;DHT22;6305;48.398;11.762;2023-06-04T11:11:44;41.90;21.80
12481;DHT22;6305;48.398;11.762;2023-06-04T11:14:11;40.80;20.80
12481;DHT22;6305;48.398;11.762;2023-06-04T11:16:40;40.20;22.10
12481;DHT22;6305;48.398;11.762;2023-06-04T11:19:07;40.30;22.40
12481;DHT22;6305;48.398;11.762;2023-06-04T11:21:35;40.60;22.40
12481;DHT22;6305;48.398;11.762;2023-06-04T11:24:04;40.90;22.10
12481;DHT22;6305;48.398;11.762;2023-06-04T11:26:32;41.40;21.90
12481;DHT22;6305;48.398;11.762;2023-06-04T11:29:00;40.30;20.90
12481;DHT22;6305;48.398;11.762;2023-06-04T11:31:27;39.00;21.50
12481;DHT22;6305;48.398;11.762;2023-06-04T11:33:55;38.60;22.60
12481;DHT22;6305;48.398;11.762;2023-06-04T11:36:23;38.60;22.80
12481;DHT22;6305;48.398;11.762;2023-06-04T11:38:55;38.20;23.30
12481;DHT22;6305;48.398;11.762;2023-06-04T11:41:22;37.10;22.50
12481;DHT22;6305;48.398;11.762;2023-06-04T11:43:49;36.20;23.60
12481;DHT22;6305;48.398;11.762;2023-06-04T11:46:17;36.20;24.60
12481;DHT22;6305;48.398;11.762;2023-06-04T11:48:44;37.80;24.50
12481;DHT22;6305;48.398;11.762;2023-06-04T11:51:12;39.10;23.00
12481;DHT22;6305;48.398;11.762;2023-06-04T11:53:40;40.10;23.10
12481;DHT22;6305;48.398;11.762;2023-06-04T11:56:07;39.80;22.20
12481;DHT22;6305;48.398;11.762;2023-06-04T11:58:34;40.10;22.00
12481;DHT22;6305;48.398;11.762;2023-06-04T12:01:02;40.30;21.40
12481;DHT22;6305;48.398;11.762;2023-06-04T12:03:36;39.30;21.20
12481;DHT22;6305;48.398;11.762;2023-06-04T12:06:15;39.20;22.40
12481;DHT22;6305;48.398;11.762;2023-06-04T12:08:47;39.90;22.50
12481;DHT22;6305;48.398;11.762;2023-06-04T12:11:25;40.20;21.50
12481;DHT22;6305;48.398;11.762;2023-06-04T12:13:54;39.80;21.60
12481;DHT22;6305;48.398;11.762;2023-06-04T12:16:21;39.50;22.50
12481;DHT22;6305;48.398;11.762;2023-06-04T12:18:48;39.90;22.60
12481;DHT22;6305;48.398;11.762;2023-06-04T12:21:22;40.80;21.90
12481;DHT22;6305;48.398;11.762;2023-06-04T12:23:54;41.80;21.40
12481;DHT22;6305;48.398;11.762;2023-06-04T12:26:22;41.50;21.00
12481;DHT22;6305;48.398;11.762;2023-06-04T12:28:59;41.30;21.30
12481;DHT22;6305;48.398;11.762;2023-06-04T12:31:26;41.40;21.30
12481;DHT22;6305;48.398;11.762;2023-06-04T12:33:59;40.50;21.20
12481;DHT22;6305;48.398;11.762;2023-06-04T12:36:28;39.00;22.40
12481;DHT22;6305;48.398;11.762;2023-06-04T12:38:58;38.90;23.20
12481;DHT22;6305;48.398;11.762;2023-06-04T12:41:25;39.40;23.00
12481;DHT22;6305;48.398;11.762;2023-06-04T12:43:52;39.50;21.90
12481;DHT22;6305;48.398;11.762;2023-06-04T12:46:19;39.70;22.40
12481;DHT22;6305;48.398;11.762;2023-06-04T12:48:47;39.90;22.20
12481;DHT22;6305;48.398;11.762;2023-06-04T12:51:14;39.90;21.30
12481;DHT22;6305;48.398;11.762;2023-06-04T12:53:42;39.80;21.20
12481;DHT22;6305;48.398;11.762;2023-06-04T12:56:09;39.60;21.50
12481;DHT22;6305;48.398;11.762;2023-06-04T12:58:37;39.30;21.60
12481;DHT22;6305;48.398;11.762;2023-06-04T13:01:04;39.60;22.10
12481;DHT22;6305;48.398;11.762;2023-06-04T13:03:31;39.70;21.60
12481;DHT22;6305;48.398;11.762;2023-06-04T13:05:59;40.10;21.90
12481;DHT22;6305;48.398;11.762;2023-06-04T13:08:26;40.40;21.60
12481;DHT22;6305;48.398;11.762;2023-06-04T13:10:54;40.20;21.30
12481;DHT22;6305;48.398;11.762;2023-06-04T13:13:21;40.10;21.40
12481;DHT22;6305;48.398;11.762;2023-06-04T13:15:48;40.00;22.00
12481;DHT22;6305;48.398;11.762;2023-06-04T13:18:15;40.30;21.60
12481;DHT22;6305;48.398;11.762;2023-06-04T13:20:42;40.50;21.70
12481;DHT22;6305;48.398;11.762;2023-06-04T13:23:09;40.30;21.50
12481;DHT22;6305;48.398;11.762;2023-06-04T13:25:37;40.10;21.70
12481;DHT22;6305;48.398;11.762;2023-06-04T13:28:06;39.90;21.70
12481;DHT22;6305;48.398;11.762;2023-06-04T13:30:34;39.80;22.30
12481;DHT22;6305;48.398;11.762;2023-06-04T13:33:02;40.10;21.50
12481;DHT22;6305;48.398;11.762;2023-06-04T13:35:29;40.10;21.00
12481;DHT22;6305;48.398;11.762;2023-06-04T13:37:56;38.70;21.00
12481;DHT22;6305;48.398;11.762;2023-06-04T13:40:23;37.20;22.40
12481;DHT22;6305;48.398;11.762;2023-06-04T13:42:51;35.90;23.60
12481;DHT22;6305;48.398;11.762;2023-06-04T13:45:19;35.30;24.20
12481;DHT22;6305;48.398;11.762;2023-06-04T13:47:46;35.10;24.70
12481;DHT22;6305;48.398;11.762;2023-06-04T13:50:15;35.70;24.90
12481;DHT22;6305;48.398;11.762;2023-06-04T13:52:42;36.10;24.40
12481;DHT22;6305;48.398;11.762;2023-06-04T13:55:09;35.90;24.30
12481;DHT22;6305;48.398;11.762;2023-06-04T13:57:36;36.20;24.40
12481;DHT22;6305;48.398;11.762;2023-06-04T14:00:04;37.10;24.00
12481;DHT22;6305;48.398;11.762;2023-06-04T14:02:33;37.10;23.40
12481;DHT22;6305;48.398;11.762;2023-06-04T14:05:01;36.50;23.10
12481;DHT22;6305;48.398;11.762;2023-06-04T14:07:28;36.10;24.20
12481;DHT22;6305;48.398;11.762;2023-06-04T14:09:55;35.90;24.30
12481;DHT22;6305;48.398;11.762;2023-06-04T14:12:23;35.90;24.40
12481;DHT22;6305;48.398;11.762;2023-06-04T14:14:50;35.80;23.80
12481;DHT22;6305;48.398;11.762;2023-06-04T14:17:17;35.40;24.30
12481;DHT22;6305;48.398;11.762;2023-06-04T14:19:45;34.70;24.80
12481;DHT22;6305;48.398;11.762;2023-06-04T14:22:12;33.80;25.00
12481;DHT22;6305;48.398;11.762;2023-06-04T14:24:40;33.10;25.90
12481;DHT22;6305;48.398;11.762;2023-06-04T14:27:07;32.50;26.20
12481;DHT22;6305;48.398;11.762;2023-06-04T14:29:35;32.50;26.90
12481;DHT22;6305;48.398;11.762;2023-06-04T14:32:02;32.80;26.40
12481;DHT22;6305;48.398;11.762;2023-06-04T14:34:29;33.10;26.50
12481;DHT22;6305;48.398;11.762;2023-06-04T14:36:59;32.90;26.20
12481;DHT22;6305;48.398;11.762;2023-06-04T14:39:26;32.50;26.40
12481;DHT22;6305;48.398;11.762;2023-06-04T14:41:53;32.10;27.50
12481;DHT22;6305;48.398;11.762;2023-06-04T14:44:21;32.10;27.10
12481;DHT22;6305;48.398;11.762;2023-06-04T14:46:49;31.90;27.40
12481;DHT22;6305;48.398;11.762;2023-06-04T14:49:17;31.50;27.70
12481;DHT22;6305;48.398;11.762;2023-06-04T14:51:45;31.10;27.90
12481;DHT22;6305;48.398;11.762;2023-06-04T14:54:14;30.80;28.20
12481;DHT22;6305;48.398;11.762;2023-06-04T14:56:41;30.20;28.50
12481;DHT22;6305;48.398;11.762;2023-06-04T14:59:09;29.70;28.90
12481;DHT22;6305;48.398;11.762;2023-06-04T15:01:38;29.40;29.50
12481;DHT22;6305;48.398;11.762;2023-06-04T15:04:06;29.70;30.00
12481;DHT22;6305;48.398;11.762;2023-06-04T15:06:33;30.80;29.80
12481;DHT22;6305;48.398;11.762;2023-06-04T15:09:00;32.00;28.80
12481;DHT22;6305;48.398;11.762;2023-06-04T15:11:28;33.30;28.00
12481;DHT22;6305;48.398;11.762;2023-06-04T15:13:56;34.40;26.40
12481;DHT22;6305;48.398;11.762;2023-06-04T15:16:23;34.40;25.20
12481;DHT22;6305;48.398;11.762;2023-06-04T15:18:50;33.70;25.40
12481;DHT22;6305;48.398;11.762;2023-06-04T15:21:17;32.70;26.00
12481;DHT22;6305;48.398;11.762;2023-06-04T15:23:44;31.90;27.40
12481;DHT22;6305;48.398;11.762;2023-06-04T15:26:14;31.20;27.80
12481;DHT22;6305;48.398;11.762;2023-06-04T15:28:43;30.90;28.00
12481;DHT22;6305;48.398;11.762;2023-06-04T15:31:10;30.80;28.40
12481;DHT22;6305;48.398;11.762;2023-06-04T15:33:37;31.00;28.30
12481;DHT22;6305;48.398;11.762;2023-06-04T15:36:04;31.20;28.40
12481;DHT22;6305;48.398;11.762;2023-06-04T15:38:32;31.40;28.80
12481;DHT22;6305;48.398;11.762;2023-06-04T15:40:59;31.20;28.70